createdAt,value
2017-09-19T00:00:25.707Z,78.40
2017-09-19T00:02:54.934Z,78.50
2017-09-19T00:05:24.206Z,78.70
2017-09-19T00:07:53.508Z,78.70
2017-09-19T00:10:23.559Z,79.30
2017-09-19T00:12:52.823Z,78.70
2017-09-19T00:15:22.071Z,78.50
2017-09-19T00:17:51.310Z,78.50
2017-09-19T00:20:20.571Z,78.80
2017-09-19T00:22:49.817Z,78.80
2017-09-19T00:25:19.047Z,78.60
2017-09-19T00:27:49.243Z,78.80
2017-09-19T00:30:18.559Z,78.70
2017-09-19T00:32:48.583Z,78.80
2017-09-19T00:35:18.599Z,78.80
2017-09-19T00:37:48.636Z,79.30
2017-09-19T00:40:17.871Z,79.20
2017-09-19T00:42:47.115Z,79.00
2017-09-19T00:45:17.144Z,79.50
2017-09-19T00:47:46.422Z,79.40
2017-09-19T00:50:16.422Z,79.90
2017-09-19T00:52:45.669Z,79.40
2017-09-19T00:55:14.915Z,79.50
2017-09-19T00:57:44.199Z,79.80
2017-09-19T01:03:30.628Z,79.90
2017-09-19T01:06:00.006Z,79.80
2017-09-19T01:08:29.241Z,79.70
2017-09-19T01:10:58.479Z,79.80
2017-09-19T01:13:27.711Z,79.50
2017-09-19T01:15:56.970Z,79.50
2017-09-19T01:18:26.207Z,79.80
2017-09-19T01:20:55.451Z,79.80
2017-09-19T01:23:25.461Z,79.90
2017-09-19T01:25:54.691Z,79.80
2017-09-19T01:28:23.971Z,79.90
2017-09-19T01:30:54.011Z,79.90
2017-09-19T01:33:23.287Z,79.90
2017-09-19T01:35:52.528Z,79.60
2017-09-19T01:38:21.767Z,79.90
2017-09-19T01:40:51.191Z,79.90
2017-09-19T01:43:21.202Z,80.50
2017-09-19T01:45:50.473Z,80.40
2017-09-19T01:48:19.708Z,80.00
2017-09-19T01:50:49.917Z,80.70
2017-09-19T01:53:19.165Z,80.70
2017-09-19T01:55:48.417Z,80.30
2017-09-19T01:58:17.713Z,80.40
2017-09-19T02:00:46.966Z,80.50
2017-09-19T02:03:16.218Z,80.70
2017-09-19T02:05:45.652Z,80.80
2017-09-19T02:08:14.911Z,81.20
2017-09-19T02:10:44.167Z,80.50
2017-09-19T02:13:13.466Z,80.60
2017-09-19T02:15:42.712Z,80.60
2017-09-19T02:18:11.935Z,80.60
2017-09-19T02:20:41.971Z,80.60
2017-09-19T02:23:11.211Z,80.60
2017-09-19T02:25:40.442Z,80.60
2017-09-19T02:28:09.727Z,80.40
2017-09-19T02:30:38.972Z,80.50
2017-09-19T02:33:08.216Z,80.40
2017-09-19T02:35:37.513Z,80.60
2017-09-19T02:38:06.730Z,80.60
2017-09-19T02:40:35.966Z,80.60
2017-09-19T02:43:05.316Z,80.40
2017-09-19T02:45:34.551Z,80.40
2017-09-19T02:48:04.732Z,80.10
2017-09-19T02:50:33.966Z,80.10
2017-09-19T02:53:04.019Z,80.40
2017-09-19T02:55:33.278Z,80.40
2017-09-19T02:58:02.523Z,80.60
2017-09-19T03:00:31.795Z,80.60
2017-09-19T03:03:01.847Z,80.90
2017-09-19T03:05:31.087Z,80.90
2017-09-19T03:08:00.337Z,80.80
2017-09-19T03:10:29.586Z,80.70
2017-09-19T03:12:58.826Z,80.90
2017-09-19T03:15:28.070Z,80.70
2017-09-19T03:17:57.338Z,80.40
2017-09-19T03:20:26.586Z,80.60
2017-09-19T03:22:55.841Z,80.70
2017-09-19T03:25:25.110Z,80.70
2017-09-19T03:27:54.339Z,81.40
2017-09-19T03:30:24.448Z,81.50
2017-09-19T03:32:53.706Z,81.50
2017-09-19T03:35:22.935Z,81.30
2017-09-19T03:37:53.034Z,80.60
2017-09-19T03:40:22.235Z,80.60
2017-09-19T03:42:51.603Z,80.30
2017-09-19T03:45:21.010Z,80.10
2017-09-19T03:47:50.251Z,80.00
2017-09-19T03:50:20.453Z,80.20
2017-09-19T03:52:49.690Z,80.20
2017-09-19T03:55:18.927Z,80.10
2017-09-19T03:57:48.350Z,80.30
2017-09-19T04:00:17.591Z,80.20
2017-09-19T04:02:46.826Z,80.30
2017-09-19T04:05:16.102Z,80.30
2017-09-19T04:07:45.338Z,80.30
2017-09-19T04:10:14.572Z,80.10
2017-09-19T04:12:43.849Z,79.90
2017-09-19T04:15:13.087Z,79.90
2017-09-19T04:17:42.359Z,80.10
2017-09-19T04:20:11.703Z,80.20
2017-09-19T04:22:40.911Z,80.30
2017-09-19T04:25:10.238Z,80.50
2017-09-19T04:27:39.501Z,80.60
2017-09-19T04:30:08.739Z,80.80
2017-09-19T04:32:38.015Z,80.60
2017-09-19T04:35:07.252Z,80.20
2017-09-19T04:37:36.483Z,80.40
2017-09-19T04:40:06.547Z,80.80
2017-09-19T04:42:35.818Z,80.90
2017-09-19T04:45:05.135Z,80.60
2017-09-19T04:47:34.402Z,80.60
2017-09-19T04:50:04.414Z,80.70
2017-09-19T04:52:34.811Z,80.50
2017-09-19T04:55:04.039Z,80.40
2017-09-19T04:57:34.058Z,80.50
2017-09-19T05:00:03.478Z,79.70
2017-09-19T05:02:32.772Z,78.90
2017-09-19T05:05:02.013Z,78.80
2017-09-19T05:07:31.455Z,78.80
2017-09-19T05:10:00.847Z,78.90
2017-09-19T05:12:30.122Z,79.00
2017-09-19T05:14:59.371Z,79.00
2017-09-19T05:17:29.380Z,79.30
2017-09-19T05:19:58.639Z,79.30
2017-09-19T05:22:27.923Z,78.90
2017-09-19T05:24:57.187Z,79.40
2017-09-19T05:27:27.243Z,79.80
2017-09-19T05:29:56.511Z,79.20
2017-09-19T05:32:25.750Z,78.80
2017-09-19T05:34:55.036Z,78.40
2017-09-19T05:37:24.274Z,78.70
2017-09-19T05:39:53.520Z,78.30
2017-09-19T05:42:22.797Z,78.10
2017-09-19T05:44:52.035Z,78.10
2017-09-19T05:47:21.271Z,78.20
2017-09-19T05:49:50.543Z,78.30
2017-09-19T05:52:19.778Z,78.10
2017-09-19T05:54:49.027Z,77.90
2017-09-19T05:57:18.319Z,78.40
2017-09-19T05:59:47.589Z,78.20
2017-09-19T06:02:16.823Z,78.20
2017-09-19T06:04:46.190Z,78.60
2017-09-19T06:07:15.437Z,78.70
2017-09-19T06:09:44.763Z,79.60
2017-09-19T06:12:13.983Z,78.80
2017-09-19T06:14:43.214Z,78.70
2017-09-19T06:17:13.407Z,79.50
2017-09-19T06:19:42.655Z,79.50
2017-09-19T06:22:11.895Z,79.60
2017-09-19T06:24:41.181Z,79.80
2017-09-19T06:27:10.419Z,80.10
2017-09-19T06:29:39.650Z,80.30
2017-09-19T06:32:08.912Z,80.40
2017-09-19T06:34:38.159Z,79.50
2017-09-19T06:37:07.462Z,79.70
2017-09-19T06:39:36.707Z,78.40
2017-09-19T06:42:05.950Z,78.60
2017-09-19T06:44:35.209Z,77.90
2017-09-19T06:47:04.535Z,77.60
2017-09-19T06:49:33.846Z,77.80
2017-09-19T06:52:03.119Z,77.20
2017-09-19T06:54:32.383Z,75.30
2017-09-19T06:57:01.639Z,75.80
2017-09-19T06:59:31.652Z,73.90
2017-09-19T07:02:01.656Z,73.40
2017-09-19T07:04:31.836Z,74.10
2017-09-19T07:07:01.054Z,74.10
2017-09-19T07:09:30.295Z,73.90
2017-09-19T07:12:00.343Z,72.10
2017-09-19T07:14:29.579Z,72.00
2017-09-19T07:16:58.805Z,71.80
2017-09-19T07:19:28.872Z,71.80
2017-09-19T07:21:58.074Z,71.80
2017-09-19T07:24:27.310Z,72.30
2017-09-19T07:26:56.571Z,72.80
2017-09-19T07:29:25.817Z,72.50
2017-09-19T07:31:55.052Z,73.00
2017-09-19T07:34:24.319Z,74.00
2017-09-19T07:36:54.354Z,72.40
2017-09-19T07:39:23.589Z,72.40
2017-09-19T07:41:52.843Z,74.60
2017-09-19T07:44:22.148Z,75.50
2017-09-19T07:46:52.406Z,76.20
2017-09-19T07:49:21.668Z,75.70
2017-09-19T07:51:50.904Z,74.60
2017-09-19T07:54:20.227Z,73.80
2017-09-19T07:56:49.705Z,75.00
2017-09-19T07:59:18.912Z,74.80
2017-09-19T08:01:48.159Z,72.90
2017-09-19T08:04:17.508Z,73.60
2017-09-19T08:06:46.757Z,73.90
2017-09-19T08:09:16.032Z,73.70
2017-09-19T08:11:46.067Z,74.10
2017-09-19T08:14:16.068Z,76.70
2017-09-19T08:16:45.360Z,76.70
2017-09-19T08:19:14.598Z,75.70
2017-09-19T08:21:43.838Z,76.70
2017-09-19T08:24:13.115Z,75.60
2017-09-19T08:26:42.351Z,78.20
2017-09-19T08:29:11.658Z,77.90
2017-09-19T08:31:40.919Z,76.50
2017-09-19T08:34:10.168Z,76.20
2017-09-19T08:36:40.208Z,77.30
2017-09-19T08:39:09.452Z,77.30
2017-09-19T08:41:38.699Z,76.40
2017-09-19T08:44:08.007Z,76.20
2017-09-19T08:46:37.312Z,76.50
2017-09-19T08:49:06.610Z,75.80
2017-09-19T08:51:35.846Z,74.30
2017-09-19T08:54:05.109Z,74.70
2017-09-19T08:56:34.367Z,75.10
2017-09-19T08:59:03.602Z,73.90
2017-09-19T09:01:32.855Z,73.60
2017-09-19T09:04:02.130Z,73.60
2017-09-19T09:06:31.393Z,74.10
2017-09-19T09:09:01.607Z,75.20
2017-09-19T09:11:30.847Z,75.20
2017-09-19T09:14:00.116Z,76.50
2017-09-19T09:16:29.531Z,75.20
2017-09-19T09:18:58.775Z,76.80
2017-09-19T09:21:28.019Z,77.60
2017-09-19T09:23:58.044Z,76.30
2017-09-19T09:26:28.103Z,74.30
2017-09-19T09:28:57.399Z,74.30
2017-09-19T09:31:26.619Z,73.90
2017-09-19T09:33:55.884Z,73.10
2017-09-19T09:36:25.146Z,73.60
2017-09-19T09:38:54.383Z,75.10
2017-09-19T09:41:23.649Z,73.70
2017-09-19T09:43:53.679Z,73.10
2017-09-19T09:46:23.716Z,74.30
2017-09-19T09:48:53.083Z,74.30
2017-09-19T09:51:22.335Z,74.40
2017-09-19T09:53:51.583Z,74.30
2017-09-19T09:56:20.862Z,73.70
2017-09-19T09:58:50.908Z,71.80
2017-09-19T10:01:20.996Z,72.60
2017-09-19T10:03:50.247Z,72.70
2017-09-19T10:06:19.499Z,71.10
2017-09-19T10:08:48.783Z,74.10
2017-09-19T10:11:18.114Z,72.80
2017-09-19T10:13:47.356Z,71.50
2017-09-19T10:16:16.613Z,71.70
2017-09-19T10:18:45.861Z,71.70
2017-09-19T10:21:15.364Z,72.60
2017-09-19T10:23:44.617Z,72.30
2017-09-19T10:26:13.874Z,71.20
2017-09-19T10:28:43.177Z,69.80
2017-09-19T10:31:12.423Z,69.40
2017-09-19T10:33:41.683Z,69.70
2017-09-19T10:36:11.119Z,69.90
2017-09-19T10:38:40.367Z,68.90
2017-09-19T10:41:09.602Z,68.10
2017-09-19T10:43:38.893Z,69.30
2017-09-19T10:46:08.184Z,68.50
2017-09-19T10:48:37.440Z,68.70
2017-09-19T10:51:08.195Z,67.80
2017-09-19T10:53:37.449Z,67.70
2017-09-19T10:56:06.683Z,68.60
2017-09-19T10:58:36.715Z,66.30
2017-09-19T11:01:06.899Z,66.20
2017-09-19T11:03:36.147Z,67.10
2017-09-19T11:06:05.404Z,68.00
2017-09-19T11:08:34.831Z,68.90
2017-09-19T11:11:04.070Z,67.60
2017-09-19T11:13:33.332Z,67.40
2017-09-19T11:16:03.359Z,67.70
2017-09-19T11:18:32.803Z,67.70
2017-09-19T11:21:02.062Z,67.80
2017-09-19T11:23:32.074Z,65.00
2017-09-19T11:26:01.334Z,65.00
2017-09-19T11:28:30.579Z,65.50
2017-09-19T11:30:59.829Z,66.20
2017-09-19T11:33:29.095Z,63.60
2017-09-19T11:35:58.346Z,65.50
2017-09-19T11:38:27.607Z,64.50
2017-09-19T11:40:56.889Z,65.70
2017-09-19T11:43:26.143Z,64.50
2017-09-19T11:45:55.389Z,65.60
2017-09-19T11:48:24.856Z,66.00
2017-09-19T11:50:54.090Z,66.00
2017-09-19T11:53:23.348Z,66.70
2017-09-19T11:55:52.607Z,65.30
2017-09-19T11:58:21.854Z,64.90
2017-09-19T12:00:51.871Z,63.60
2017-09-19T12:03:21.879Z,63.50
2017-09-19T12:05:51.201Z,63.50
2017-09-19T12:08:20.426Z,64.40
2017-09-19T12:10:49.667Z,65.30
2017-09-19T12:13:18.927Z,63.80
2017-09-19T12:15:48.179Z,63.70
2017-09-19T12:18:17.559Z,63.40
2017-09-19T12:20:46.835Z,63.60
2017-09-19T12:23:16.079Z,65.10
2017-09-19T12:25:45.380Z,63.90
2017-09-19T12:28:14.734Z,63.30
2017-09-19T12:30:44.189Z,61.90
2017-09-19T12:33:13.453Z,62.90
2017-09-19T12:35:42.893Z,63.80
2017-09-19T12:38:12.343Z,62.00
2017-09-19T12:40:42.351Z,63.20
2017-09-19T12:43:11.607Z,63.20
2017-09-19T12:45:40.878Z,62.70
2017-09-19T12:48:10.133Z,63.90
2017-09-19T12:50:40.196Z,61.40
2017-09-19T12:53:09.448Z,61.40
2017-09-19T12:55:39.479Z,61.70
2017-09-19T12:58:09.508Z,61.80
2017-09-19T13:00:38.759Z,61.80
2017-09-19T13:03:08.064Z,62.70
2017-09-19T13:05:37.349Z,62.60
2017-09-19T13:08:06.591Z,61.80
2017-09-19T13:10:35.852Z,60.10
2017-09-19T13:13:05.158Z,61.20
2017-09-19T13:15:34.424Z,62.30
2017-09-19T13:18:04.451Z,61.50
2017-09-19T13:20:33.711Z,61.50
2017-09-19T13:23:03.725Z,63.90
2017-09-19T13:25:33.736Z,64.10
2017-09-19T13:28:03.000Z,64.10
2017-09-19T13:30:32.444Z,61.80
2017-09-19T13:33:20.241Z,63.20
2017-09-19T13:35:49.504Z,63.10
2017-09-19T13:38:18.776Z,62.80
2017-09-19T13:40:48.790Z,62.40
2017-09-19T13:43:18.864Z,62.20
2017-09-19T13:45:48.152Z,62.20
2017-09-19T13:48:17.392Z,64.10
2017-09-19T13:50:46.732Z,63.30
2017-09-19T13:53:16.016Z,63.90
2017-09-19T13:55:45.275Z,65.10
2017-09-19T13:58:14.556Z,65.20
2017-09-19T14:00:43.801Z,64.10
2017-09-19T14:03:13.057Z,63.00
2017-09-19T14:05:42.319Z,63.40
2017-09-19T14:08:12.404Z,64.20
2017-09-19T14:10:41.824Z,64.20
2017-09-19T14:13:11.076Z,64.40
2017-09-19T14:15:40.320Z,64.80
2017-09-19T14:18:09.752Z,65.50
2017-09-19T14:20:39.769Z,65.30
2017-09-19T14:23:09.151Z,65.20
2017-09-19T14:25:38.389Z,64.80
2017-09-19T14:28:07.637Z,64.60
2017-09-19T14:30:36.995Z,65.70
2017-09-19T14:33:10.811Z,65.30
2017-09-19T14:35:40.075Z,66.10
2017-09-19T14:38:10.089Z,64.90
2017-09-19T14:40:40.286Z,63.80
2017-09-19T14:43:09.576Z,63.80
2017-09-19T14:45:39.095Z,63.30
2017-09-19T14:48:08.327Z,63.80
2017-09-19T14:50:38.420Z,60.00
2017-09-19T14:53:07.653Z,59.90
2017-09-19T14:55:36.907Z,59.70
2017-09-19T14:58:06.197Z,61.60
2017-09-19T15:00:39.305Z,60.40
2017-09-19T15:03:10.120Z,60.90
2017-09-19T15:05:40.844Z,60.90
2017-09-19T15:08:11.093Z,61.80
2017-09-19T15:10:40.391Z,61.40
2017-09-19T15:13:09.641Z,61.80
2017-09-19T15:15:38.888Z,62.10
2017-09-19T15:18:08.156Z,61.70
2017-09-19T15:20:37.396Z,61.30
2017-09-19T15:23:06.680Z,62.10
2017-09-19T15:25:35.926Z,62.00
2017-09-19T15:28:06.029Z,60.00
2017-09-19T15:30:35.696Z,60.00
2017-09-19T15:33:04.940Z,61.30
2017-09-19T15:35:34.207Z,61.70
2017-09-19T15:38:03.480Z,62.20
2017-09-19T15:40:32.755Z,63.30
2017-09-19T15:43:06.589Z,64.60
2017-09-19T15:45:37.933Z,64.70
2017-09-19T15:48:07.192Z,64.80
2017-09-19T15:50:37.246Z,65.90
2017-09-19T15:53:06.503Z,65.30
2017-09-19T15:55:35.748Z,65.70
2017-09-19T15:58:05.039Z,64.30
2017-09-19T16:00:34.284Z,62.90
2017-09-19T16:03:03.541Z,62.40
2017-09-19T16:05:32.829Z,62.40
2017-09-19T16:08:03.956Z,62.00
2017-09-19T16:10:34.863Z,62.10
2017-09-19T16:13:04.923Z,63.30
2017-09-19T16:15:34.981Z,63.20
2017-09-19T16:18:04.616Z,63.20
2017-09-19T16:20:36.629Z,64.30
2017-09-19T16:23:06.064Z,63.60
2017-09-19T16:25:35.616Z,64.00
2017-09-19T16:28:05.624Z,63.80
2017-09-19T16:30:35.068Z,63.80
2017-09-19T16:33:04.321Z,64.60
2017-09-19T16:35:33.560Z,64.70
2017-09-19T16:38:02.839Z,64.10
2017-09-19T16:40:32.086Z,65.00
2017-09-19T16:43:01.353Z,64.80
2017-09-19T16:45:31.438Z,65.60
2017-09-19T16:48:00.707Z,65.50
2017-09-19T16:50:30.065Z,64.90
2017-09-19T16:52:59.368Z,65.30
2017-09-19T16:55:29.384Z,65.20
2017-09-19T16:57:58.652Z,65.20
2017-09-19T17:00:28.694Z,65.80
2017-09-19T17:02:57.997Z,65.80
2017-09-19T17:05:27.235Z,65.80
2017-09-19T17:07:56.954Z,65.90
2017-09-19T17:10:26.235Z,66.40
2017-09-19T17:12:55.507Z,66.80
2017-09-19T17:15:24.941Z,66.70
2017-09-19T17:17:54.195Z,67.00
2017-09-19T17:20:24.232Z,67.50
2017-09-19T17:22:53.517Z,67.50
2017-09-19T17:25:22.761Z,67.90
2017-09-19T17:27:52.036Z,68.20
2017-09-19T17:30:21.297Z,68.30
2017-09-19T17:32:50.528Z,68.30
2017-09-19T17:35:19.821Z,67.80
2017-09-19T17:37:49.065Z,68.10
2017-09-19T17:40:18.304Z,68.20
2017-09-19T17:42:47.740Z,68.60
2017-09-19T17:45:16.987Z,68.90
2017-09-19T17:47:47.124Z,69.20
2017-09-19T17:50:16.392Z,69.20
2017-09-19T17:52:46.412Z,68.10
2017-09-19T17:55:16.459Z,67.40
2017-09-19T17:57:45.726Z,67.30
2017-09-19T18:00:14.958Z,66.90
2017-09-19T18:02:44.207Z,66.60
2017-09-19T18:05:13.497Z,65.60
2017-09-19T18:07:43.176Z,65.90
2017-09-19T18:10:12.419Z,64.90
2017-09-19T18:12:41.719Z,64.60
2017-09-19T18:15:10.987Z,64.60
2017-09-19T18:17:40.272Z,64.60
2017-09-19T18:20:10.421Z,64.80
2017-09-19T18:22:39.752Z,64.70
2017-09-19T18:25:09.824Z,65.00
2017-09-19T18:27:39.150Z,65.00
2017-09-19T18:30:08.668Z,65.30
2017-09-19T18:32:41.735Z,66.10
2017-09-19T18:35:12.921Z,66.10
2017-09-19T18:37:49.854Z,66.30
2017-09-19T18:40:19.893Z,66.50
2017-09-19T18:42:49.175Z,66.70
2017-09-19T18:45:18.669Z,66.50
2017-09-19T18:47:48.335Z,67.00
2017-09-19T18:50:17.584Z,67.10
2017-09-19T18:52:47.810Z,67.90
2017-09-19T18:55:17.099Z,67.90
2017-09-19T18:57:47.221Z,68.90
2017-09-19T19:00:17.236Z,69.10
2017-09-19T19:02:47.299Z,69.10
2017-09-19T19:05:16.556Z,69.10
2017-09-19T19:07:46.605Z,69.60
2017-09-19T19:10:15.888Z,69.60
2017-09-19T19:12:45.195Z,69.80
2017-09-19T19:15:14.505Z,69.40
2017-09-19T19:17:44.703Z,70.00
2017-09-19T19:20:14.734Z,70.40
2017-09-19T19:22:44.020Z,70.40
2017-09-19T19:25:13.287Z,70.60
2017-09-19T19:27:42.596Z,71.00
2017-09-19T19:30:11.835Z,71.40
2017-09-19T19:32:41.079Z,71.60
2017-09-19T19:35:10.596Z,71.10
2017-09-19T19:37:40.037Z,71.20
2017-09-19T19:40:11.125Z,70.90
2017-09-19T19:42:40.380Z,70.90
2017-09-19T19:45:09.643Z,71.30
2017-09-19T19:47:38.992Z,71.20
2017-09-19T19:50:08.297Z,71.50
2017-09-19T19:52:37.593Z,71.50
2017-09-19T19:55:06.929Z,71.70
2017-09-19T19:57:36.242Z,71.30
2017-09-19T20:00:05.483Z,71.60
2017-09-19T20:02:35.570Z,72.90
2017-09-19T20:05:05.652Z,72.50
2017-09-19T20:07:35.676Z,72.10
2017-09-19T20:10:04.964Z,72.00
2017-09-19T20:12:34.203Z,72.10
2017-09-19T20:15:03.497Z,72.20
2017-09-19T20:17:32.744Z,72.60
2017-09-19T20:20:02.799Z,72.80
2017-09-19T20:22:32.044Z,72.80
2017-09-19T20:25:02.081Z,73.90
2017-09-19T20:27:32.083Z,73.00
2017-09-19T20:30:02.104Z,72.80
2017-09-19T20:32:32.132Z,72.50
2017-09-19T20:35:01.483Z,72.50
2017-09-19T20:37:30.768Z,72.30
2017-09-19T20:40:00.038Z,72.10
2017-09-19T20:42:29.328Z,71.90
2017-09-19T20:44:59.428Z,71.90
2017-09-19T20:47:28.675Z,71.80
2017-09-19T20:49:58.843Z,71.20
2017-09-19T20:52:28.172Z,70.80
2017-09-19T20:54:58.471Z,71.30
2017-09-19T20:57:27.924Z,71.20
2017-09-19T20:59:57.251Z,71.50
2017-09-19T21:02:26.487Z,71.50
2017-09-19T21:05:02.151Z,71.30
2017-09-19T21:07:36.883Z,71.50
2017-09-19T21:10:12.264Z,71.40
2017-09-19T21:12:46.918Z,71.40
2017-09-19T21:15:23.018Z,70.70
2017-09-19T21:17:57.791Z,70.60
2017-09-19T21:20:26.400Z,70.30
2017-09-19T21:22:55.708Z,70.30
2017-09-19T21:25:24.982Z,70.00
2017-09-19T21:27:54.468Z,70.90
2017-09-19T21:30:23.797Z,70.60
2017-09-19T21:32:53.065Z,70.60
2017-09-19T21:35:22.328Z,70.60
2017-09-19T21:37:52.427Z,70.80
2017-09-19T21:40:21.776Z,70.70
2017-09-19T21:42:51.023Z,70.90
2017-09-19T21:45:20.284Z,70.80
2017-09-19T21:47:49.531Z,70.70
2017-09-19T21:50:18.784Z,70.60
2017-09-19T21:52:50.020Z,70.60
2017-09-19T21:55:19.255Z,70.10
2017-09-19T21:57:48.563Z,70.10
2017-09-19T22:00:17.839Z,70.40
2017-09-19T22:02:47.138Z,71.10
2017-09-19T22:05:16.621Z,71.80
2017-09-19T22:07:45.880Z,70.40
2017-09-19T22:10:15.145Z,70.20
2017-09-19T22:12:44.525Z,69.90
2017-09-19T22:15:13.775Z,70.20
2017-09-19T22:17:43.200Z,71.20
2017-09-19T22:20:12.531Z,71.10
2017-09-19T22:22:41.777Z,70.50
2017-09-19T22:25:11.214Z,70.50
2017-09-19T22:27:41.227Z,70.60
2017-09-19T22:30:10.503Z,70.60
2017-09-19T22:32:39.791Z,71.10
2017-09-19T22:35:09.156Z,70.60
2017-09-19T22:37:38.421Z,71.00
2017-09-19T22:40:07.655Z,71.10
2017-09-19T22:42:36.907Z,71.50
2017-09-19T22:45:06.212Z,71.70
2017-09-19T22:47:36.170Z,71.60
2017-09-19T22:50:05.428Z,71.80
2017-09-19T22:52:34.848Z,72.20
2017-09-19T22:55:04.145Z,71.10
2017-09-19T22:57:33.344Z,71.50
2017-09-19T23:00:02.645Z,71.60
2017-09-19T23:02:31.569Z,72.00
2017-09-19T23:05:00.819Z,72.30
2017-09-19T23:07:30.267Z,72.00
2017-09-19T23:10:00.272Z,72.40
2017-09-19T23:12:29.574Z,72.40
2017-09-19T23:15:00.379Z,72.50
2017-09-19T23:17:29.616Z,72.50
2017-09-19T23:20:00.989Z,72.90
2017-09-19T23:22:30.251Z,72.90
2017-09-19T23:25:01.185Z,73.70
2017-09-19T23:27:30.448Z,73.30
2017-09-19T23:29:59.719Z,73.30
2017-09-19T23:32:29.373Z,73.70
2017-09-19T23:34:59.593Z,73.90
2017-09-19T23:37:28.885Z,73.80
2017-09-19T23:39:58.962Z,74.00
2017-09-19T23:42:28.833Z,73.20
2017-09-19T23:44:58.110Z,73.40
2017-09-19T23:47:27.408Z,73.80
2017-09-19T23:49:56.651Z,73.60
2017-09-19T23:52:26.709Z,73.20
2017-09-19T23:54:55.978Z,73.20
2017-09-19T23:57:25.231Z,73.10
2017-09-19T23:59:54.558Z,72.60
